KB7STN Weather Reports


Display with metric or nautical units.
time (UTC)temp
F
wind
direction
speed
MPH
gust
MPH
rain 1hr
in
rain 24hr
in
rain mn
in
humidity
%
barometer
mb
20220528204524 53 13 0.0 0.0 0.00 0.08 0.08 88 997.5
20220528204024 53 17 0.0 0.0 0.00 0.08 0.08 87 997.6
20220528203524 53 17 0.0 0.0 0.00 0.08 0.08 87 997.6
20220528203023 52 0 0.0 0.0 0.00 0.08 0.08 87 997.6
20220528202524 52 5 0.0 0.0 0.01 0.08 0.08 87 997.6
20220528202024 52 5 0.0 0.0 0.01 0.08 0.08 88 997.6
20220528201524 52 5 0.0 0.0 0.01 0.08 0.08 89 997.5
20220528201024 52 5 0.0 0.0 0.01 0.08 0.08 89 997.7
20220528200524 52 5 0.0 0.0 0.01 0.08 0.08 89 997.8
20220528200024 52 5 0.0 0.0 0.01 0.08 0.08 89 997.8
20220528195524 52 5 0.0 0.0 0.02 0.08 0.08 89 997.7
20220528195024 52 5 0.0 0.0 0.02 0.08 0.08 89 997.7
20220528194524 52 5 0.0 0.0 0.02 0.08 0.08 90 997.7
20220528194024 52 5 0.0 0.0 0.03 0.08 0.08 90 997.8
20220528193524 52 5 0.0 0.0 0.03 0.08 0.08 90 997.8
20220528193024 51 5 0.0 0.0 0.04 0.08 0.08 90 997.8
20220528192524 51 5 0.0 0.0 0.03 0.07 0.07 89 997.9
20220528192024 51 5 0.0 0.0 0.03 0.07 0.07 89 998.0
20220528191524 51 5 0.0 0.0 0.03 0.07 0.07 89 998.0
20220528191024 51 5 0.0 0.0 0.03 0.07 0.07 89 998.0
20220528190524 51 5 0.0 0.0 0.03 0.07 0.07 88 997.9
20220528190024 51 5 0.0 0.0 0.03 0.07 0.07 89 998.0
20220528185524 51 5 0.0 0.0 0.02 0.06 0.06 88 998.0
20220528185024 51 5 0.0 0.0 0.02 0.06 0.06 88 997.9
20220528184524 51 0 0.0 0.0 0.02 0.06 0.06 89 997.9
20220528184024 51 0 0.0 2.0 0.01 0.05 0.05 88 997.8
20220528183524 51 0 0.0 0.0 0.01 0.05 0.05 88 997.8
20220528183024 51 0 0.0 0.0 0.00 0.04 0.04 88 997.9
20220528182524 51 0 0.0 0.0 0.00 0.04 0.04 88 997.9
20220528182024 51 0 0.0 2.0 0.00 0.04 0.04 88 997.9
20220528181524 51 0 0.0 2.0 0.01 0.04 0.04 87 997.9
20220528181024 51 0 0.0 1.0 0.01 0.04 0.04 87 997.9
20220528180524 51 355 0.0 1.0 0.01 0.04 0.04 88 997.9
20220528180024 51 355 0.0 2.0 0.02 0.04 0.04 88 997.9
20220528175524 51 355 0.0 3.0 0.04 0.04 0.04 87 998.0
20220528175024 51 0 1.0 6.0 0.04 0.04 0.04 87 997.8
20220528174524 51 0 1.0 5.0 0.04 0.04 0.04 85 997.7
20220528174024 51 0 0.0 3.0 0.04 0.04 0.04 86 997.7
20220528173524 51 5 1.0 4.0 0.04 0.04 0.04 85 997.6
20220528173024 51 355 1.0 3.0 0.04 0.04 0.04 85 997.6
20220528172524 52 346 2.0 8.0 0.04 0.04 0.04 84 997.5
20220528172024 52 9 2.0 8.0 0.04 0.04 0.04 82 997.3
20220528171524 52 21 1.0 7.0 0.03 0.03 0.03 80 997.4
20220528171024 53 355 1.0 5.0 0.03 0.03 0.03 79 997.5
20220528170524 54 345 1.0 8.0 0.03 0.03 0.03 77 997.5
20220528170024 54 21 0.0 3.0 0.02 0.02 0.02 74 997.4
20220528165524 55 19 1.0 3.0 0.00 0.00 0.00 71 997.3
20220528165024 55 19 1.0 8.0 0.00 0.00 0.00 67 997.3
20220528164524 55 5 1.0 10.0 0.00 0.00 0.00 67 997.1
20220528164024 56 15 2.0 9.0 0.00 0.00 0.00 67 997.0
20220528163524 56 24 2.0 10.0 0.00 0.00 0.00 66 996.9
20220528163024 56 24 1.0 7.0 0.00 0.00 0.00 66 996.8
20220528162524 56 355 2.0 9.0 0.00 0.00 0.00 66 996.5
20220528162024 56 5 2.0 8.0 0.00 0.00 0.00 65 996.4
20220528161524 57 11 2.0 8.0 0.00 0.00 0.00 63 996.3
20220528161024 57 5 1.0 7.0 0.00 0.00 0.00 62 996.4
20220528160524 58 20 0.0 9.0 0.00 0.00 0.00 62 996.5
20220528160024 58 27 1.0 5.0 0.00 0.00 0.00 62 996.2
20220528155524 58 12 2.0 10.0 0.00 0.00 0.00 61 996.2
20220528155024 58 52 1.0 7.0 0.00 0.00 0.00 60 996.1
20220528154524 58 5 2.0 9.0 0.00 0.00 0.00 61 995.8
20220528154024 58 10 2.0 7.0 0.00 0.00 0.00 62 995.8
20220528153524 57 351 1.0 9.0 0.00 0.00 0.00 62 995.7
20220528153024 57 5 1.0 7.0 0.00 0.00 0.00 62 995.9
20220528152524 56 14 1.0 6.0 0.00 0.00 0.00 64 995.8
20220528152024 56 10 2.0 8.0 0.00 0.00 0.00 65 996.0
20220528151524 55 28 2.0 14.0 0.00 0.00 0.00 64 996.0
20220528151024 55 0 2.0 12.0 0.00 0.00 0.00 64 996.0
20220528150524 56 14 2.0 10.0 0.00 0.00 0.00 64 995.9
20220528150024 56 355 1.0 10.0 0.00 0.00 0.00 64 995.6
20220528145524 56 32 1.0 9.0 0.00 0.00 0.00 63 995.3
20220528145024 56 5 1.0 8.0 0.00 0.00 0.00 63 995.4
20220528144524 56 0 1.0 11.0 0.00 0.00 0.00 63 995.4
20220528144024 56 13 1.0 5.0 0.00 0.00 0.00 62 995.2
20220528143524 56 351 1.0 10.0 0.00 0.00 0.00 62 995.2
20220528143024 56 0 1.0 12.0 0.00 0.00 0.00 61 995.3
20220528142524 56 0 0.0 5.0 0.00 0.00 0.00 61 995.3
20220528142024 56 5 1.0 5.0 0.00 0.00 0.00 61 995.3
20220528141524 56 346 1.0 6.0 0.00 0.00 0.00 61 995.4
20220528141024 56 28 0.0 4.0 0.00 0.00 0.00 61 995.5
20220528140524 57 0 0.0 4.0 0.00 0.00 0.00 60 995.4
20220528140024 57 355 1.0 5.0 0.00 0.00 0.00 60 995.6
20220528135524 57 5 1.0 7.0 0.00 0.00 0.00 59 995.5
20220528135024 57 5 0.0 3.0 0.00 0.00 0.00 58 995.3
20220528134524 58 11 0.0 1.0 0.00 0.00 0.00 59 994.9
20220528134024 58 11 0.0 3.0 0.00 0.00 0.00 59 995.1
20220528133524 58 22 1.0 4.0 0.00 0.00 0.00 59 995.4
20220528133024 58 348 1.0 12.0 0.00 0.00 0.00 59 995.1
20220528132524 58 321 1.0 8.0 0.00 0.00 0.00 58 995.3
20220528132024 59 317 1.0 6.0 0.00 0.00 0.00 56 995.3
20220528131524 59 316 1.0 5.0 0.00 0.00 0.00 54 995.3
20220528131024 59 316 0.0 8.0 0.00 0.00 0.00 52 995.2
20220528130524 59 311 0.0 6.0 0.00 0.00 0.00 53 994.9
20220528130024 59 311 0.0 3.0 0.00 0.00 0.00 53 994.7
20220528125524 59 311 0.0 0.0 0.00 0.00 0.00 52 994.7
20220528125024 59 311 0.0 0.0 0.00 0.00 0.00 52 994.7
20220528124524 60 311 0.0 2.0 0.00 0.00 0.00 52 994.6
20220528124024 60 311 0.0 6.0 0.00 0.00 0.00 52 994.5
20220528123524 60 311 0.0 4.0 0.00 0.00 0.00 51 994.5
20220528123024 60 311 0.0 2.0 0.00 0.00 0.00 51 994.6
20220528122524 60 311 0.0 4.0 0.00 0.00 0.00 50 994.5
20220528122024 60 310 0.0 6.0 0.00 0.00 0.00 50 994.4
20220528121524 61 310 0.0 2.0 0.00 0.00 0.00 48 994.3
20220528121024 61 310 0.0 5.0 0.00 0.00 0.00 48 994.2
20220528120524 61 310 0.0 2.0 0.00 0.00 0.00 47 994.0
20220528120024 61 310 0.0 3.0 0.00 0.00 0.00 46 993.9
20220528115524 61 309 1.0 9.0 0.00 0.00 0.00 45 993.8
20220528115024 61 309 0.0 4.0 0.00 0.00 0.00 46 993.6
20220528114524 61 309 0.0 7.0 0.00 0.00 0.00 47 993.6
20220528114024 61 308 0.0 0.0 0.00 0.00 0.00 49 993.5
20220528113524 61 308 0.0 0.0 0.00 0.00 0.00 49 993.5
20220528113024 62 308 0.0 0.0 0.00 0.00 0.00 49 993.4
20220528112524 62 308 0.0 0.0 0.00 0.00 0.00 48 993.4
20220528112024 62 308 0.0 0.0 0.00 0.00 0.00 47 993.3
20220528111524 62 308 0.0 0.0 0.00 0.00 0.00 46 993.2
20220528111024 62 308 0.0 0.0 0.00 0.00 0.00 47 993.3
20220528110524 62 308 0.0 0.0 0.00 0.00 0.00 47 993.3
20220528110024 62 308 0.0 1.0 0.00 0.00 0.00 47 993.3
20220528105524 62 308 0.0 2.0 0.00 0.00 0.00 47 993.3
20220528105024 62 308 0.0 0.0 0.00 0.00 0.00 47 993.3
20220528104524 63 308 0.0 0.0 0.00 0.00 0.00 46 993.3
20220528104024 63 308 0.0 3.0 0.00 0.00 0.00 45 993.2
20220528103525 63 308 0.0 1.0 0.00 0.00 0.00 44 993.2
20220528103024 63 308 0.0 0.0 0.00 0.00 0.00 45 993.2
20220528102525 63 308 0.0 0.0 0.00 0.00 0.00 45 993.3
20220528102025 63 308 0.0 1.0 0.00 0.00 0.00 43 993.4
20220528101525 63 308 0.0 4.0 0.00 0.00 0.00 43 993.5
20220528101025 63 306 0.0 3.0 0.00 0.00 0.00 42 993.3
20220528100525 63 306 0.0 3.0 0.00 0.00 0.00 42 993.3
20220528100025 63 306 0.0 6.0 0.00 0.00 0.00 42 993.2
20220528095525 63 303 0.0 0.0 0.00 0.00 0.00 44 993.2
20220528095025 63 303 0.0 0.0 0.00 0.00 0.00 43 993.2
20220528094525 63 303 0.0 0.0 0.00 0.00 0.00 44 993.1
20220528094025 63 303 0.0 0.0 0.00 0.00 0.00 43 993.2
20220528093525 63 303 0.0 0.0 0.00 0.00 0.00 43 993.2
20220528093025 64 303 0.0 0.0 0.00 0.00 0.00 42 993.0
20220528092525 64 303 0.0 0.0 0.00 0.00 0.00 41 993.0
20220528092025 64 303 0.0 0.0 0.00 0.00 0.00 41 992.8
20220528091525 64 303 0.0 0.0 0.00 0.00 0.00 42 992.7
20220528091025 64 303 0.0 0.0 0.00 0.00 0.00 40 992.6
20220528090525 64 303 0.0 0.0 0.00 0.00 0.00 42 992.6
20220528090025 64 303 0.0 0.0 0.00 0.00 0.00 39 992.6
20220528085525 64 303 0.0 0.0 0.00 0.00 0.00 40 992.8
20220528085025 64 303 0.0 0.0 0.00 0.00 0.00 39 992.8
20220528084525 65 303 0.0 0.0 0.00 0.00 0.00 39 993.0
20220528084025 65 303 0.0 0.0 0.00 0.00 0.00 39 993.1
20220528083525 65 303 0.0 0.0 0.00 0.00 0.00 39 993.0
20220528083025 66 303 0.0 0.0 0.00 0.00 0.00 38 993.1
20220528082525 66 303 0.0 0.0 0.00 0.00 0.00 37 993.2
20220528082025 67 303 0.0 0.0 0.00 0.00 0.00 36 993.3
20220528081525 67 303 0.0 0.0 0.00 0.00 0.00 35 993.3
20220528081025 68 303 0.0 0.0 0.00 0.00 0.00 35 993.3
20220528080525 68 303 0.0 0.0 0.00 0.00 0.00 34 993.4
20220528080025 68 303 0.0 0.0 0.00 0.00 0.00 33 993.5
20220528075525 68 303 0.0 0.0 0.00 0.00 0.00 34 993.7
20220528075025 68 303 0.0 0.0 0.00 0.00 0.00 34 993.7
20220528074525 68 303 0.0 0.0 0.00 0.00 0.00 34 993.8
20220528074025 67 303 0.0 0.0 0.00 0.00 0.00 35 993.8
20220528073525 67 303 0.0 0.0 0.00 0.00 0.00 34 993.9
20220528073025 66 303 0.0 0.0 0.00 0.00 0.00 36 993.8
20220528072525 65 303 0.0 0.0 0.00 0.00 0.00 37 993.8
20220528072025 64 303 0.0 0.0 0.00 0.00 0.00 38 993.9
20220528071525 64 303 0.0 0.0 0.00 0.00 0.00 38 994.0
20220528071025 64 303 0.0 0.0 0.00 0.00 0.00 41 994.1
20220528070525 65 303 0.0 0.0 0.00 0.00 0.00 40 994.1
20220528070025 65 303 0.0 0.0 0.00 0.00 0.00 39 994.3
20220528065525 65 303 0.0 0.0 0.00 0.00 0.00 39 994.4
20220528065025 66 303 0.0 0.0 0.00 0.00 0.00 39 994.5
20220528064525 66 303 0.0 0.0 0.00 0.00 0.00 39 994.6
20220528064025 66 303 0.0 0.0 0.00 0.00 0.00 38 994.6
20220528063525 66 303 0.0 0.0 0.00 0.00 0.00 38 994.6
20220528063025 66 303 0.0 0.0 0.00 0.00 0.00 39 994.6
20220528062525 65 303 0.0 0.0 0.00 0.00 0.00 41 994.7
20220528062025 65 303 0.0 0.0 0.00 0.00 0.00 41 994.7
20220528061525 65 303 0.0 0.0 0.00 0.00 0.00 41 994.6
20220528061025 66 303 0.0 0.0 0.00 0.00 0.00 41 994.8
20220528060525 66 303 0.0 0.0 0.00 0.00 0.00 41 994.8
20220528060025 66 303 0.0 0.0 0.00 0.00 0.00 42 995.0
20220528055525 66 303 0.0 0.0 0.00 0.00 0.00 43 994.9
20220528055025 66 303 0.0 0.0 0.00 0.00 0.00 42 995.0
20220528054525 65 303 0.0 0.0 0.00 0.00 0.00 42 995.0
20220528054025 65 303 0.0 0.0 0.00 0.00 0.00 43 995.0
20220528053525 65 303 0.0 0.0 0.00 0.00 0.00 44 995.1
20220528053025 65 303 0.0 0.0 0.00 0.00 0.00 43 995.3
20220528052525 66 303 0.0 0.0 0.00 0.00 0.00 43 995.4
20220528052025 66 303 0.0 0.0 0.00 0.00 0.00 43 995.5
20220528051525 66 303 0.0 0.0 0.00 0.00 0.00 42 995.5
20220528051025 66 303 0.0 0.0 0.00 0.00 0.00 42 995.5
20220528050525 67 303 0.0 0.0 0.00 0.00 0.00 42 995.5
20220528050025 67 303 0.0 0.0 0.00 0.00 0.00 42 995.6
20220528045525 67 303 0.0 0.0 0.00 0.00 0.00 41 995.7
20220528045025 67 303 0.0 0.0 0.00 0.00 0.00 40 995.8
20220528044525 67 303 0.0 0.0 0.00 0.00 0.00 40 995.8
20220528044025 68 303 0.0 0.0 0.00 0.00 0.00 39 995.9
20220528043525 68 303 0.0 0.0 0.00 0.00 0.00 39 996.1
20220528043025 68 303 0.0 0.0 0.00 0.00 0.00 39 996.0
20220528042525 68 303 0.0 0.0 0.00 0.00 0.00 39 996.1
20220528042025 68 303 0.0 0.0 0.00 0.00 0.00 39 996.0
20220528041525 69 303 0.0 0.0 0.00 0.00 0.00 39 996.1
20220528041025 69 303 0.0 0.0 0.00 0.00 0.00 38 996.2
20220528040525 69 303 0.0 0.0 0.00 0.00 0.00 38 996.2
20220528040025 69 303 0.0 0.0 0.00 0.00 0.00 37 995.9
20220528035525 69 303 0.0 0.0 0.00 0.00 0.00 37 995.8
20220528035025 69 303 0.0 0.0 0.00 0.00 0.00 37 995.9
20220528034525 70 303 0.0 0.0 0.00 0.00 0.00 37 995.9
20220528034025 70 303 0.0 0.0 0.00 0.00 0.00 36 995.7
20220528033525 70 303 0.0 0.0 0.00 0.00 0.00 35 995.8
20220528033025 70 303 0.0 0.0 0.00 0.00 0.00 35 995.8
20220528032525 70 303 0.0 0.0 0.00 0.00 0.00 35 995.9
20220528032025 70 303 0.0 0.0 0.00 0.00 0.00 34 995.6
20220528031525 70 303 0.0 0.0 0.00 0.00 0.00 34 995.6
20220528031025 71 303 0.0 0.0 0.00 0.00 0.00 33 995.6
20220528030525 71 303 0.0 0.0 0.00 0.00 0.00 35 995.5
20220528030025 71 303 0.0 0.0 0.00 0.00 0.00 33 995.4
20220528025525 71 303 0.0 0.0 0.00 0.00 0.00 34 995.4
20220528025025 72 303 0.0 0.0 0.00 0.00 0.00 34 995.5
20220528024525 72 303 0.0 0.0 0.00 0.00 0.00 33 995.4
20220528024025 72 303 0.0 0.0 0.00 0.00 0.00 32 995.3
20220528023525 72 303 0.0 0.0 0.00 0.00 0.00 32 995.1
20220528023025 72 303 0.0 0.0 0.00 0.00 0.00 31 995.1
20220528022525 72 303 0.0 0.0 0.00 0.00 0.00 33 995.0
20220528022025 73 303 0.0 0.0 0.00 0.00 0.00 32 994.9
20220528021525 73 303 0.0 0.0 0.00 0.00 0.00 32 995.0
20220528021025 73 303 0.0 0.0 0.00 0.00 0.00 32 995.1
20220528020525 73 303 0.0 0.0 0.00 0.00 0.00 31 995.1
20220528020025 74 303 0.0 0.0 0.00 0.00 0.00 31 995.1
20220528015525 74 303 0.0 0.0 0.00 0.00 0.00 30 995.0
20220528015025 74 303 0.0 0.0 0.00 0.00 0.00 29 995.0
20220528014525 75 303 0.0 0.0 0.00 0.00 0.00 30 995.1
20220528014025 76 303 0.0 0.0 0.00 0.00 0.00 30 995.2
20220528013525 76 303 0.0 3.0 0.00 0.00 0.00 29 995.2
20220528013025 77 302 0.0 1.0 0.00 0.00 0.00 27 995.3
20220528012525 77 302 0.0 0.0 0.00 0.00 0.00 28 995.1
20220528012025 77 302 0.0 0.0 0.00 0.00 0.00 30 995.0
20220528011525 77 302 0.0 3.0 0.00 0.00 0.00 30 995.1
20220528011025 77 301 0.0 1.0 0.00 0.00 0.00 29 995.1
20220528010525 77 300 0.0 4.0 0.00 0.00 0.00 29 995.1
20220528010025 78 298 0.0 0.0 0.00 0.00 0.00 29 995.0
20220528005525 78 298 0.0 4.0 0.00 0.00 0.00 29 995.1
20220528005025 78 298 0.0 2.0 0.00 0.00 0.00 28 995.0
20220528004525 78 297 0.0 0.0 0.00 0.00 0.00 30 995.0
20220528004025 78 297 0.0 2.0 0.00 0.00 0.00 29 995.0
20220528003525 78 297 0.0 3.0 0.00 0.00 0.00 29 995.0
20220528003025 78 296 0.0 0.0 0.00 0.00 0.00 28 994.9
20220528002525 79 296 0.0 0.0 0.00 0.00 0.00 27 995.0
20220528002025 79 296 0.0 4.0 0.00 0.00 0.00 27 995.0
20220528001526 80 296 0.0 5.0 0.00 0.00 0.00 28 994.9
20220528001025 80 294 0.0 4.0 0.00 0.00 0.00 26 994.9
20220528000526 80 284 0.0 3.0 0.00 0.00 0.00 27 994.9
20220528000026 80 278 0.0 6.0 0.00 0.00 0.00 27 994.9
20220527235526 81 15 0.0 0.0 0.00 0.00 0.00 27 994.9
20220527235026 81 15 0.0 0.0 0.00 0.00 0.00 26 995.0
20220527234525 80 15 0.0 0.0 0.00 0.00 0.00 24 995.1
20220527234026 80 355 0.0 0.0 0.00 0.00 0.00 25 995.0
20220527233526 80 355 0.0 0.0 0.00 0.00 0.00 27 995.2
20220527233026 80 355 0.0 0.0 0.00 0.00 0.00 27 995.2
20220527232526 80 355 0.0 0.0 0.00 0.00 0.00 27 995.3
20220527232026 79 355 0.0 0.0 0.00 0.00 0.00 28 995.4
20220527231526 79 355 0.0 0.0 0.00 0.00 0.00 28 995.6
20220527231026 79 355 0.0 0.0 0.00 0.00 0.00 30 995.6
20220527230526 78 355 0.0 0.0 0.00 0.00 0.00 30 995.7
20220527230026 78 355 0.0 0.0 0.00 0.00 0.00 33 995.8
20220527225526 77 355 0.0 0.0 0.00 0.00 0.00 34 996.0
20220527225026 76 355 0.0 0.0 0.00 0.00 0.00 34 996.2
20220527224526 76 355 0.0 0.0 0.00 0.00 0.00 40 996.3
20220527224026 76 355 0.0 0.0 0.00 0.00 0.00 39 996.5
20220527223526 77 355 0.0 0.0 0.00 0.00 0.00 35 996.5
20220527223026 78 355 0.0 0.0 0.00 0.00 0.00 34 996.5
20220527222526 78 355 0.0 0.0 0.00 0.00 0.00 30 996.5
20220527222026 78 355 0.0 0.0 0.00 0.00 0.00 27 996.5
20220527221526 78 355 0.0 0.0 0.00 0.00 0.00 27 996.5
20220527221026 78 355 0.0 0.0 0.00 0.00 0.00 25 996.6
20220527220526 78 350 0.0 0.0 0.00 0.00 0.00 25 996.7
20220527220026 79 19 0.0 0.0 0.00 0.00 0.00 27 996.7
20220527215526 79 19 0.0 0.0 0.00 0.00 0.00 26 996.7
20220527215026 79 19 0.0 0.0 0.00 0.00 0.00 25 996.8
20220527214526 79 19 0.0 0.0 0.00 0.00 0.00 27 996.8
20220527214026 80 21 0.0 0.0 0.00 0.00 0.00 24 996.9
20220527213526 80 30 0.0 0.0 0.00 0.00 0.00 26 996.9
20220527213026 80 0 0.0 4.0 0.00 0.00 0.00 24 996.9
20220527212526 80 43 0.0 3.0 0.00 0.00 0.00 25 997.0
20220527212026 80 35 0.0 0.0 0.00 0.00 0.00 26 997.1
20220527211526 79 22 0.0 3.0 0.00 0.00 0.00 24 997.2
20220527211026 79 107 0.0 0.0 0.00 0.00 0.00 27 997.3
20220527210526 79 126 0.0 0.0 0.00 0.00 0.00 25 997.4
20220527210026 79 140 0.0 0.0 0.00 0.00 0.00 25 997.5
20220527205526 79 143 0.0 0.0 0.00 0.00 0.00 25 997.5
20220527205026 79 143 0.0 0.0 0.00 0.00 0.00 25 997.7